createdAt,value
2019-03-24T00:01:22.450Z,4.00
2019-03-24T00:03:49.924Z,3.87
2019-03-24T00:06:17.429Z,6.23
2019-03-24T00:08:44.898Z,4.20
2019-03-24T00:11:12.453Z,4.17
2019-03-24T00:13:40.215Z,5.07
2019-03-24T00:16:07.736Z,3.57
2019-03-24T00:18:35.209Z,3.63
2019-03-24T00:21:02.922Z,3.30
2019-03-24T00:23:30.379Z,3.80
2019-03-24T00:25:57.894Z,3.03
2019-03-24T00:28:25.394Z,3.43
2019-03-24T00:30:52.875Z,3.80
2019-03-24T00:33:20.538Z,3.00
2019-03-24T00:35:48.030Z,3.50
2019-03-24T00:38:15.489Z,3.47
2019-03-24T00:40:42.983Z,3.40
2019-03-24T00:43:10.462Z,3.37
2019-03-24T00:45:37.963Z,4.10
2019-03-24T00:48:05.628Z,2.47
2019-03-24T00:50:33.141Z,2.63
2019-03-24T00:53:00.627Z,3.63
2019-03-24T00:55:28.139Z,3.50
2019-03-24T00:57:55.618Z,3.60
2019-03-24T01:00:41.405Z,3.43
2019-03-24T01:03:08.885Z,3.23
2019-03-24T01:05:36.392Z,3.03
2019-03-24T01:08:04.000Z,2.97
2019-03-24T01:10:31.511Z,4.17
2019-03-24T01:12:58.970Z,4.60
2019-03-24T01:15:26.468Z,3.60
2019-03-24T01:17:53.930Z,3.43
2019-03-24T01:20:21.538Z,2.93
2019-03-24T01:22:49.111Z,3.00
2019-03-24T01:25:16.611Z,4.40
2019-03-24T01:27:44.078Z,4.60
2019-03-24T01:30:12.740Z,3.37
2019-03-24T01:32:40.214Z,4.40
2019-03-24T01:35:07.841Z,4.00
2019-03-24T01:37:35.294Z,3.73
2019-03-24T01:40:03.021Z,3.57
2019-03-24T01:42:30.487Z,3.30
2019-03-24T01:44:57.980Z,4.00
2019-03-24T01:47:25.426Z,4.23
2019-03-24T01:49:52.915Z,3.80
2019-03-24T01:52:20.383Z,2.80
2019-03-24T01:54:47.842Z,4.17
2019-03-24T01:57:15.331Z,3.03
2019-03-24T01:59:42.807Z,3.50
2019-03-24T02:02:10.467Z,2.97
2019-03-24T02:04:37.947Z,3.30
2019-03-24T02:07:05.464Z,3.70
2019-03-24T02:09:32.936Z,3.67
2019-03-24T02:12:01.298Z,3.17
2019-03-24T02:14:28.779Z,3.87
2019-03-24T02:16:56.285Z,3.90
2019-03-24T02:19:23.757Z,3.80
2019-03-24T02:21:51.279Z,4.97
2019-03-24T02:24:18.763Z,3.07
2019-03-24T02:26:46.271Z,4.90
2019-03-24T02:29:13.785Z,4.40
2019-03-24T02:31:41.307Z,4.30
2019-03-24T02:34:08.764Z,4.93
2019-03-24T02:36:36.254Z,5.43
2019-03-24T02:39:06.045Z,4.67
2019-03-24T02:41:33.537Z,6.17
2019-03-24T02:44:00.994Z,6.87
2019-03-24T02:46:28.502Z,6.27
2019-03-24T02:48:55.965Z,6.50
2019-03-24T02:51:23.449Z,7.40
2019-03-24T02:53:50.935Z,7.03
2019-03-24T02:56:18.732Z,6.20
2019-03-24T02:58:46.217Z,6.97
2019-03-24T03:01:13.716Z,8.20
2019-03-24T03:03:41.179Z,9.03
2019-03-24T03:06:08.689Z,8.03
2019-03-24T03:08:36.157Z,8.50
2019-03-24T03:11:04.066Z,8.80
2019-03-24T03:13:31.553Z,7.07
2019-03-24T03:15:59.072Z,7.27
2019-03-24T03:18:26.596Z,7.70
2019-03-24T03:20:54.118Z,9.20
2019-03-24T03:23:21.665Z,9.70
2019-03-24T03:25:49.213Z,9.03
2019-03-24T03:28:16.803Z,9.60
2019-03-24T03:30:44.341Z,8.47
2019-03-24T03:33:12.182Z,8.73
2019-03-24T03:35:39.745Z,7.63
2019-03-24T03:38:07.249Z,10.00
2019-03-24T03:40:34.781Z,8.40
2019-03-24T03:43:02.257Z,8.00
2019-03-24T03:45:29.781Z,8.90
2019-03-24T03:47:57.256Z,8.57
2019-03-24T03:50:24.750Z,10.57
2019-03-24T03:52:52.222Z,10.13
2019-03-24T03:55:19.709Z,10.93
2019-03-24T03:57:47.226Z,9.90
2019-03-24T04:00:14.830Z,10.07
2019-03-24T04:02:42.371Z,11.17
2019-03-24T04:05:10.084Z,11.80
2019-03-24T04:07:37.602Z,10.93
2019-03-24T04:10:06.064Z,12.50
2019-03-24T04:12:33.577Z,13.37
2019-03-24T04:15:01.103Z,13.90
2019-03-24T04:17:28.698Z,14.20
2019-03-24T04:19:56.286Z,14.87
2019-03-24T04:22:23.814Z,13.47
2019-03-24T04:24:51.273Z,14.23
2019-03-24T04:27:18.786Z,13.30
2019-03-24T04:29:46.290Z,15.70
2019-03-24T04:32:13.797Z,15.73
2019-03-24T04:34:41.324Z,14.77
2019-03-24T04:37:08.845Z,15.87
2019-03-24T04:39:36.315Z,17.17
2019-03-24T04:42:03.892Z,15.27
2019-03-24T04:44:31.403Z,16.50
2019-03-24T04:46:58.963Z,15.80
2019-03-24T04:49:26.463Z,17.17
2019-03-24T04:51:54.022Z,15.73
2019-03-24T04:54:21.517Z,16.77
2019-03-24T04:56:49.029Z,16.37
2019-03-24T04:59:16.552Z,16.07
2019-03-24T05:01:44.052Z,15.30
2019-03-24T05:04:11.566Z,15.90
2019-03-24T05:06:39.927Z,14.33
2019-03-24T05:09:07.421Z,14.10
2019-03-24T05:11:34.970Z,14.40
2019-03-24T05:14:02.463Z,14.87
2019-03-24T05:16:29.983Z,13.67
2019-03-24T05:18:57.464Z,14.10
2019-03-24T05:21:24.968Z,12.17
2019-03-24T05:23:52.454Z,12.53
2019-03-24T05:26:19.956Z,13.13
2019-03-24T05:28:47.436Z,12.27
2019-03-24T05:31:14.939Z,15.47
2019-03-24T05:33:42.456Z,13.90
2019-03-24T05:36:09.968Z,12.27
2019-03-24T05:38:37.472Z,11.33
2019-03-24T05:41:05.114Z,12.23
2019-03-24T05:43:32.663Z,12.30
2019-03-24T05:46:00.136Z,11.63
2019-03-24T05:48:27.654Z,12.30
2019-03-24T05:50:55.136Z,12.77
2019-03-24T05:53:22.697Z,12.00
2019-03-24T05:55:50.281Z,10.20
2019-03-24T05:58:17.978Z,11.33
2019-03-24T06:00:45.475Z,13.10
2019-03-24T06:03:13.116Z,11.80
2019-03-24T06:05:41.259Z,11.70
2019-03-24T06:08:08.832Z,11.23
2019-03-24T06:10:36.374Z,11.37
2019-03-24T06:13:03.958Z,11.07
2019-03-24T06:15:31.487Z,11.63
2019-03-24T06:17:58.981Z,12.97
2019-03-24T06:20:26.453Z,11.63
2019-03-24T06:22:54.006Z,12.37
2019-03-24T06:25:21.482Z,10.40
2019-03-24T06:27:49.052Z,11.63
2019-03-24T06:30:16.540Z,11.50
2019-03-24T06:32:44.064Z,11.07
2019-03-24T06:35:11.577Z,10.57
2019-03-24T06:37:39.075Z,11.60
2019-03-24T06:40:08.386Z,11.67
2019-03-24T06:42:35.916Z,10.70
2019-03-24T06:45:03.741Z,11.53
2019-03-24T06:47:31.258Z,10.57
2019-03-24T06:49:58.762Z,10.63
2019-03-24T06:52:26.263Z,9.37
2019-03-24T06:54:53.765Z,11.47
2019-03-24T06:57:21.264Z,9.00
2019-03-24T06:59:48.861Z,7.53
2019-03-24T07:02:16.963Z,9.97
2019-03-24T07:04:44.439Z,9.00
2019-03-24T07:07:12.320Z,9.37
2019-03-24T07:09:39.866Z,8.80
2019-03-24T07:12:07.391Z,9.70
2019-03-24T07:14:35.066Z,8.93
2019-03-24T07:17:04.090Z,7.63
2019-03-24T07:19:31.563Z,8.33
2019-03-24T07:21:59.077Z,8.10
2019-03-24T07:24:26.565Z,9.57
2019-03-24T07:26:54.122Z,8.33
2019-03-24T07:29:21.624Z,7.33
2019-03-24T07:31:49.196Z,9.50
2019-03-24T07:34:16.757Z,8.67
2019-03-24T07:36:44.363Z,7.97
2019-03-24T07:39:12.130Z,8.07
2019-03-24T07:41:39.653Z,7.43
2019-03-24T07:44:07.301Z,12.40
2019-03-24T07:46:35.092Z,7.90
2019-03-24T07:49:02.601Z,8.60
2019-03-24T07:51:30.133Z,7.40
2019-03-24T07:53:57.623Z,8.47
2019-03-24T07:56:25.128Z,7.33
2019-03-24T07:58:52.732Z,9.80
2019-03-24T08:01:20.216Z,6.63
2019-03-24T08:03:47.759Z,7.87
2019-03-24T08:06:15.298Z,8.50
2019-03-24T08:08:44.407Z,7.33
2019-03-24T08:11:12.161Z,7.20
2019-03-24T08:13:39.773Z,6.17
2019-03-24T08:16:07.306Z,8.20
2019-03-24T08:18:34.842Z,7.97
2019-03-24T08:21:02.330Z,6.90
2019-03-24T08:23:29.848Z,7.63
2019-03-24T08:25:57.365Z,7.50
2019-03-24T08:28:24.880Z,7.17
2019-03-24T08:30:52.370Z,8.67
2019-03-24T08:33:19.894Z,8.73
2019-03-24T08:35:47.396Z,7.13
2019-03-24T08:38:14.971Z,5.07
2019-03-24T08:40:42.461Z,7.40
2019-03-24T08:43:09.982Z,7.23
2019-03-24T08:45:37.460Z,7.57
2019-03-24T08:48:05.012Z,7.40
2019-03-24T08:50:32.462Z,8.23
2019-03-24T08:53:00.125Z,8.80
2019-03-24T08:55:27.883Z,7.80
2019-03-24T08:57:55.586Z,6.73
2019-03-24T09:00:30.512Z,6.47
2019-03-24T09:02:52.545Z,6.37
2019-03-24T09:05:20.033Z,5.70
2019-03-24T09:07:47.573Z,6.10
2019-03-24T09:10:15.063Z,6.73
2019-03-24T09:12:42.597Z,6.97
2019-03-24T09:15:10.077Z,7.67
2019-03-24T09:17:37.726Z,12.20
2019-03-24T09:20:05.761Z,8.27
2019-03-24T09:22:33.295Z,6.83
2019-03-24T09:25:00.770Z,9.60
2019-03-24T09:27:28.306Z,6.50
2019-03-24T09:29:55.971Z,5.70
2019-03-24T09:32:23.490Z,6.90
2019-03-24T09:34:51.021Z,6.40
2019-03-24T09:37:18.648Z,5.73
2019-03-24T09:39:46.162Z,4.70
2019-03-24T09:42:13.704Z,4.80
2019-03-24T09:44:41.201Z,5.00
2019-03-24T09:47:08.753Z,5.73
2019-03-24T09:49:36.289Z,6.20
2019-03-24T09:52:03.803Z,5.93
2019-03-24T09:54:31.370Z,5.37
2019-03-24T09:56:59.098Z,5.17
2019-03-24T09:59:26.656Z,5.07
2019-03-24T10:01:54.191Z,5.87
2019-03-24T10:04:21.711Z,5.77
2019-03-24T10:06:49.267Z,5.47
2019-03-24T10:09:16.809Z,4.57
2019-03-24T10:11:44.342Z,3.80
2019-03-24T10:14:11.897Z,4.00
2019-03-24T10:16:39.404Z,3.83
2019-03-24T10:19:13.861Z,5.93
2019-03-24T10:21:36.361Z,4.60
2019-03-24T10:24:03.886Z,4.27
2019-03-24T10:26:31.384Z,3.70
2019-03-24T10:28:58.918Z,3.30
2019-03-24T10:31:26.426Z,4.60
2019-03-24T10:33:54.064Z,3.73
2019-03-24T10:36:21.573Z,2.30
2019-03-24T10:38:49.105Z,2.00
2019-03-24T10:41:16.626Z,2.77
2019-03-24T10:43:44.151Z,2.40
2019-03-24T10:46:11.659Z,2.00
2019-03-24T10:48:39.244Z,2.57
2019-03-24T10:51:06.857Z,2.50
2019-03-24T10:53:34.374Z,2.20
2019-03-24T10:56:01.866Z,2.53
2019-03-24T10:58:29.703Z,2.03
2019-03-24T11:00:57.524Z,2.13
2019-03-24T11:03:25.209Z,2.40
2019-03-24T11:05:52.847Z,1.73
2019-03-24T11:08:20.335Z,2.10
2019-03-24T11:10:47.923Z,2.80
2019-03-24T11:13:15.511Z,2.53
2019-03-24T11:15:43.025Z,3.10
2019-03-24T11:18:10.514Z,2.27
2019-03-24T11:20:38.056Z,2.57
2019-03-24T11:23:05.610Z,2.57
2019-03-24T11:25:33.121Z,3.13
2019-03-24T11:28:00.601Z,2.60
2019-03-24T11:30:28.372Z,2.40
2019-03-24T11:32:55.958Z,2.20
2019-03-24T11:35:23.510Z,2.40
2019-03-24T11:37:51.011Z,2.70
2019-03-24T11:40:18.701Z,3.30
2019-03-24T11:42:46.306Z,2.57
2019-03-24T11:45:15.370Z,2.40
2019-03-24T11:47:42.860Z,3.20
2019-03-24T11:50:10.928Z,3.10
2019-03-24T11:52:38.443Z,3.87
2019-03-24T11:55:07.271Z,3.17
2019-03-24T11:57:34.897Z,3.10
2019-03-24T12:00:03.282Z,2.93
2019-03-24T12:02:31.543Z,3.30
2019-03-24T12:04:59.180Z,3.10
2019-03-24T12:07:26.689Z,2.70
2019-03-24T12:09:54.323Z,3.03
2019-03-24T12:12:21.983Z,4.37
2019-03-24T12:14:50.159Z,4.53
2019-03-24T12:17:17.820Z,4.10
2019-03-24T12:19:56.274Z,3.03
2019-03-24T12:22:15.230Z,3.90
2019-03-24T12:24:42.879Z,3.00
2019-03-24T12:27:10.378Z,2.93
2019-03-24T12:29:37.923Z,2.10
2019-03-24T12:32:05.582Z,2.27
2019-03-24T12:34:33.121Z,3.50
2019-03-24T12:37:00.651Z,2.17
2019-03-24T12:39:28.637Z,2.33
2019-03-24T12:41:56.163Z,2.70
2019-03-24T12:44:23.678Z,2.40
2019-03-24T12:46:51.229Z,2.90
2019-03-24T12:49:18.781Z,3.23
2019-03-24T12:51:46.328Z,2.10
2019-03-24T12:54:14.017Z,3.40
2019-03-24T12:56:41.653Z,3.07
2019-03-24T12:59:09.180Z,3.43
2019-03-24T13:01:36.738Z,2.90
2019-03-24T13:04:04.487Z,3.53
2019-03-24T13:06:32.104Z,3.23
2019-03-24T13:08:59.720Z,2.50
2019-03-24T13:11:28.351Z,3.57
2019-03-24T13:13:56.358Z,3.20
2019-03-24T13:16:23.953Z,3.30
2019-03-24T13:18:51.505Z,3.43
2019-03-24T13:21:19.245Z,2.57
2019-03-24T13:23:46.975Z,2.93
2019-03-24T13:26:15.011Z,2.47
2019-03-24T13:28:42.510Z,2.40
2019-03-24T13:31:10.040Z,2.80
2019-03-24T13:33:37.826Z,2.60
2019-03-24T13:36:10.561Z,1.87
2019-03-24T13:38:38.148Z,2.77
2019-03-24T13:41:06.511Z,2.00
2019-03-24T13:43:34.044Z,2.20
2019-03-24T13:46:01.913Z,1.90
2019-03-24T13:48:29.402Z,1.97
2019-03-24T13:50:56.923Z,2.80
2019-03-24T13:53:24.472Z,2.30
2019-03-24T13:55:52.040Z,1.87
2019-03-24T13:58:19.635Z,1.87
2019-03-24T14:00:47.232Z,1.90
2019-03-24T14:03:14.726Z,5.00
2019-03-24T14:05:42.298Z,3.97
2019-03-24T14:08:09.829Z,2.03
2019-03-24T14:10:37.395Z,2.50
2019-03-24T14:13:04.885Z,1.73
2019-03-24T14:15:32.394Z,2.07
2019-03-24T14:17:59.917Z,1.80
2019-03-24T14:20:27.440Z,3.33
2019-03-24T14:22:55.410Z,2.30
2019-03-24T14:25:23.043Z,1.90
2019-03-24T14:27:50.701Z,1.50
2019-03-24T14:30:28.372Z,0.97
2019-03-24T14:32:55.930Z,1.70
2019-03-24T14:35:23.438Z,1.30
2019-03-24T14:37:50.981Z,2.03
2019-03-24T14:40:18.530Z,2.07
2019-03-24T14:42:46.134Z,1.50
2019-03-24T14:45:13.645Z,1.87
2019-03-24T14:47:41.209Z,1.10
2019-03-24T14:50:09.016Z,2.00
2019-03-24T14:52:36.571Z,2.03
2019-03-24T14:55:04.647Z,1.50
2019-03-24T14:57:32.189Z,1.80
2019-03-24T14:59:59.770Z,2.27
2019-03-24T15:02:27.372Z,2.40
2019-03-24T15:04:54.980Z,2.20
2019-03-24T15:07:22.688Z,2.13
2019-03-24T15:09:50.282Z,1.87
2019-03-24T15:12:17.912Z,1.60
2019-03-24T15:14:45.499Z,1.80
2019-03-24T15:17:13.141Z,1.90
2019-03-24T15:19:40.693Z,1.70
2019-03-24T15:22:08.363Z,1.80
2019-03-24T15:24:35.892Z,1.87
2019-03-24T15:27:04.120Z,1.93
2019-03-24T15:29:31.798Z,1.90
2019-03-24T15:31:59.387Z,3.03
2019-03-24T15:34:26.971Z,2.30
2019-03-24T15:36:54.506Z,2.00
2019-03-24T15:39:22.255Z,2.70
2019-03-24T15:41:49.829Z,2.30
2019-03-24T15:44:17.345Z,3.33
2019-03-24T15:46:44.973Z,3.10
2019-03-24T15:49:12.524Z,2.40
2019-03-24T15:51:40.163Z,3.83
2019-03-24T15:54:07.849Z,3.30
2019-03-24T15:56:35.393Z,4.00
2019-03-24T15:59:03.212Z,3.33
2019-03-24T16:01:30.746Z,3.50
2019-03-24T16:03:58.291Z,3.60
2019-03-24T16:06:25.962Z,4.27
2019-03-24T16:08:53.537Z,4.47
2019-03-24T16:11:21.132Z,4.80
2019-03-24T16:13:48.693Z,6.07
2019-03-24T16:16:16.253Z,5.23
2019-03-24T16:18:53.061Z,5.50
2019-03-24T16:21:27.654Z,5.60
2019-03-24T16:23:50.123Z,4.87
2019-03-24T16:26:17.662Z,5.73
2019-03-24T16:28:45.182Z,4.53
2019-03-24T16:31:12.769Z,3.93
2019-03-24T16:33:40.350Z,4.33
2019-03-24T16:36:07.868Z,3.50
2019-03-24T16:38:35.392Z,3.00
2019-03-24T16:41:02.901Z,2.70
2019-03-24T16:43:30.402Z,2.70
2019-03-24T16:45:57.901Z,2.33
2019-03-24T16:48:36.206Z,2.53
2019-03-24T16:50:54.855Z,2.53
2019-03-24T16:53:22.547Z,2.37
2019-03-24T16:55:50.165Z,3.10
2019-03-24T16:58:17.737Z,2.70
2019-03-24T17:00:45.276Z,2.10
2019-03-24T17:03:12.822Z,2.60
2019-03-24T17:05:40.309Z,2.10
2019-03-24T17:08:07.932Z,2.70
2019-03-24T17:10:35.429Z,2.57
2019-03-24T17:13:02.979Z,2.00
2019-03-24T17:15:30.543Z,2.40
2019-03-24T17:17:58.070Z,2.43
2019-03-24T17:20:25.601Z,2.93
2019-03-24T17:22:53.174Z,2.00
2019-03-24T17:25:20.701Z,2.20
2019-03-24T17:27:48.188Z,2.40
2019-03-24T17:30:16.051Z,3.17
2019-03-24T17:32:43.551Z,2.00
2019-03-24T17:35:11.293Z,2.17
2019-03-24T17:37:38.833Z,2.93
2019-03-24T17:40:08.000Z,2.17
2019-03-24T17:42:35.512Z,2.50
2019-03-24T17:45:03.493Z,2.53
2019-03-24T17:47:31.038Z,1.50
2019-03-24T17:49:58.684Z,2.50
2019-03-24T17:52:26.392Z,1.80
2019-03-24T17:54:54.113Z,1.57
2019-03-24T17:57:21.658Z,2.97
2019-03-24T17:59:49.238Z,1.70
2019-03-24T18:02:16.783Z,2.43
2019-03-24T18:04:47.341Z,2.10
2019-03-24T18:07:14.822Z,3.80
2019-03-24T18:09:42.334Z,3.47
2019-03-24T18:12:09.833Z,3.13
2019-03-24T18:14:37.366Z,3.83
2019-03-24T18:17:04.882Z,4.33
2019-03-24T18:19:32.438Z,4.37
2019-03-24T18:21:59.918Z,4.97
2019-03-24T18:24:27.488Z,4.60
2019-03-24T18:26:54.962Z,3.60
2019-03-24T18:29:22.506Z,3.33
2019-03-24T18:31:50.013Z,3.60
2019-03-24T18:34:17.609Z,3.73
2019-03-24T18:36:45.117Z,4.07
2019-03-24T18:39:12.702Z,3.50
2019-03-24T18:41:40.193Z,3.10
2019-03-24T18:44:07.753Z,2.67
2019-03-24T18:46:35.424Z,4.13
2019-03-24T18:49:03.091Z,3.70
2019-03-24T18:51:30.691Z,4.27
2019-03-24T18:53:58.258Z,4.10
2019-03-24T18:56:25.839Z,3.67
2019-03-24T18:58:53.368Z,3.00
2019-03-24T19:01:20.892Z,3.10
2019-03-24T19:03:48.414Z,2.20
2019-03-24T19:06:16.042Z,2.50
2019-03-24T19:08:43.587Z,2.57
2019-03-24T19:11:11.109Z,2.70
2019-03-24T19:13:38.621Z,2.87
2019-03-24T19:16:06.120Z,3.23
2019-03-24T19:18:33.699Z,2.73
2019-03-24T19:21:02.918Z,2.73
2019-03-24T19:23:30.451Z,2.43
2019-03-24T19:25:59.666Z,1.87
2019-03-24T19:28:27.216Z,2.33
2019-03-24T19:30:54.742Z,2.20
2019-03-24T19:33:22.261Z,2.60
2019-03-24T19:35:49.774Z,2.13
2019-03-24T19:38:17.286Z,1.90
2019-03-24T19:40:44.891Z,2.27
2019-03-24T19:43:12.421Z,2.00
2019-03-24T19:45:39.937Z,2.10
2019-03-24T19:48:07.456Z,2.63
2019-03-24T19:50:34.981Z,2.43
2019-03-24T19:53:02.721Z,1.80
2019-03-24T19:55:30.250Z,2.50
2019-03-24T19:57:57.848Z,2.30
2019-03-24T20:00:25.549Z,2.37
2019-03-24T20:02:53.020Z,2.10
2019-03-24T20:05:20.553Z,2.50
2019-03-24T20:07:48.536Z,2.20
2019-03-24T20:10:16.169Z,2.60
2019-03-24T20:12:43.791Z,2.50
2019-03-24T20:15:11.411Z,2.17
2019-03-24T20:17:38.910Z,2.00
2019-03-24T20:20:06.497Z,2.13
2019-03-24T20:22:34.012Z,2.13
2019-03-24T20:25:01.526Z,2.77
2019-03-24T20:27:29.170Z,2.80
2019-03-24T20:29:56.656Z,2.90
2019-03-24T20:32:24.169Z,2.70
2019-03-24T20:34:51.725Z,2.77
2019-03-24T20:37:20.610Z,2.67
2019-03-24T20:39:48.105Z,1.87
2019-03-24T20:42:15.660Z,2.53
2019-03-24T20:44:43.156Z,2.53
2019-03-24T20:47:10.664Z,2.37
2019-03-24T20:49:40.849Z,2.73
2019-03-24T20:52:09.583Z,2.53
2019-03-24T20:54:37.374Z,2.67
2019-03-24T20:57:04.932Z,3.00
2019-03-24T20:59:32.437Z,2.87
2019-03-24T21:01:59.984Z,2.50
2019-03-24T21:04:27.486Z,2.47
2019-03-24T21:06:55.048Z,2.03
2019-03-24T21:09:22.889Z,2.73
2019-03-24T21:11:50.655Z,3.33
2019-03-24T21:14:18.222Z,2.67
2019-03-24T21:16:46.093Z,2.20
2019-03-24T21:19:13.646Z,2.17
2019-03-24T21:21:41.285Z,1.77
2019-03-24T21:24:08.836Z,2.20
2019-03-24T21:26:36.354Z,2.27
2019-03-24T21:29:03.990Z,2.33
2019-03-24T21:31:31.727Z,2.20
2019-03-24T21:33:59.354Z,1.80
2019-03-24T21:36:26.946Z,2.10
2019-03-24T21:38:54.632Z,2.20
2019-03-24T21:41:22.344Z,2.40
2019-03-24T21:43:50.159Z,2.00
2019-03-24T21:46:17.988Z,1.90
2019-03-24T21:48:45.657Z,2.90
2019-03-24T21:51:13.389Z,2.50
2019-03-24T21:53:41.146Z,2.70
2019-03-24T21:56:08.804Z,2.57
2019-03-24T21:58:36.525Z,3.07
2019-03-24T22:01:04.347Z,3.30
2019-03-24T22:03:32.095Z,2.90
2019-03-24T22:05:59.625Z,2.90
2019-03-24T22:08:27.626Z,2.80
2019-03-24T22:10:55.218Z,2.90
2019-03-24T22:13:22.846Z,2.67
2019-03-24T22:15:50.519Z,3.20
2019-03-24T22:18:18.287Z,2.70
2019-03-24T22:20:49.088Z,2.70
2019-03-24T22:23:15.394Z,3.63
2019-03-24T22:25:42.897Z,2.80
2019-03-24T22:28:10.463Z,3.20
2019-03-24T22:30:37.956Z,2.70
2019-03-24T22:33:05.514Z,3.23
2019-03-24T22:35:33.024Z,3.10
2019-03-24T22:38:02.357Z,3.30
2019-03-24T22:40:29.831Z,2.70
2019-03-24T22:42:57.328Z,3.03
2019-03-24T22:45:24.842Z,3.13
2019-03-24T22:47:52.406Z,3.73
2019-03-24T22:50:19.900Z,3.00
2019-03-24T22:52:47.427Z,3.50
2019-03-24T22:55:15.007Z,2.50
2019-03-24T22:57:42.549Z,3.33
2019-03-24T23:00:17.524Z,2.83
2019-03-24T23:02:45.036Z,3.37
2019-03-24T23:05:12.612Z,3.50
2019-03-24T23:07:40.124Z,3.10
2019-03-24T23:10:07.698Z,2.93
2019-03-24T23:12:35.217Z,3.13
2019-03-24T23:15:02.774Z,4.37
2019-03-24T23:17:30.287Z,4.00
2019-03-24T23:19:57.862Z,3.53
2019-03-24T23:22:25.408Z,4.23
2019-03-24T23:24:52.996Z,3.33
2019-03-24T23:27:20.567Z,3.87
2019-03-24T23:29:48.045Z,3.50
2019-03-24T23:32:15.568Z,3.40
2019-03-24T23:34:43.122Z,3.60
2019-03-24T23:37:10.592Z,4.40
2019-03-24T23:39:38.090Z,4.60
2019-03-24T23:42:05.555Z,4.40
2019-03-24T23:44:33.049Z,4.80
2019-03-24T23:47:00.568Z,4.37
2019-03-24T23:49:28.240Z,4.77
2019-03-24T23:51:55.776Z,4.00
2019-03-24T23:54:27.251Z,4.67
2019-03-24T23:56:52.723Z,4.70
2019-03-24T23:59:20.281Z,4.30
